Clear Sky Current Weather (METAR) For Bournemouth Airport

All times on the weather descriptions are local

Observed at 21:20 - (29 days ago)

Clear Sky

1°C

Clear Sky
Clouds:
Wind: 320° at 01 knots
Visibility: Greater than 10km
QNH: 1003
Dew Point: 0°C
Runway in Use: Likely Runway 26

Sunrise Today: 07:24
Sunset Today: 17:18

Forecast Weather (TAF) For Bournemouth Airport

Issued at 00:00 - (18 days ago)


Runway in Use: Unable to determine, wind is clam

Forecast valid until 00:00 on Monday

METAR/TAF RAW METAR / TAF

EGHH 102120Z 32001KT CAVOK 01/00 Q1003

Weather Widget

Put weather from any of our airports on your website with our weather widget.

Find Another Search

Airport Search


Please Wait Please Wait - Loading
Close
Close

Login

Username:

Password:

Remember Me:

Remember me on this computer

Forgotten your password? Get a reset password sent to your registered e-mail address

Close

User Private Message

Subject:

Message: